Narragansett, Rhode Island
Current Conditions -  °F | °C
As of 5:00 AM on Thursday 27 Nov 2014 (Local Time) from KUUU Reporting Station
Scattered Clouds Scattered Clouds  
Wind Chill: 29°   Ceiling: Unl
Heat Index: 36°   Visibility: 10mi
Dew Point: 31°   Wind: 9mph
Humidity: 82%   Direction: 330°NNW
Pressure: 29.81"   Gusts: NA
Location:  41.45°N, 71.45°W
Report Text: KUUU 271000Z AUTO 33008KT 10SM SCT013 SCT022 02/M01 A2981 RMK AO2 T00221006
Loading
Personal Weather Stations






























Interactive Weather Map New forecast layout! Learn more

10-Day Weather Forecast

Advertisements
Track Severe Weather on mobile